Terminal Aerodrome Forecast
Issued by NWS Mt. Holly, NJ

Home | Current Version | Previous Version | Text Only | Print | Product List | Glossary On
Versions: 1 2 3 4 5 6 7 8 9 10 11 12 13 14
423
FTUS41 KPHI 250522
TAFABE
TAF
KABE 250522Z 2506/2606 00000KT P6SM SCT050 BKN200 WS020/24038KT
     FM250800 26004KT 6SM BR BKN040 OVC200 WS020/27035KT
     FM251000 VRB03KT 3SM BR BKN030
      TEMPO 2510/2513 1SM BR SCT004
     FM251300 00000KT P6SM SCT015 BKN035
     FM251900 04008KT P6SM OVC015 PROB30 2520/2522 3SM -SHRA
     FM252200 05011KT 4SM -SHRA BR OVC015
     FM260400 06008KT 2SM -RA BR OVC008=

USA.gov is the U.S. government's official web portal to all federal, state and local government web resources and services.